createdAt,value
2017-02-04T00:00:49.367Z,22.68
2017-02-04T00:01:49.307Z,22.55
2017-02-04T00:02:49.245Z,22.75
2017-02-04T00:03:49.182Z,22.68
2017-02-04T00:04:49.325Z,22.59
2017-02-04T00:05:49.061Z,22.66
2017-02-04T00:06:48.995Z,22.59
2017-02-04T00:07:48.930Z,22.65
2017-02-04T00:08:48.864Z,22.7
2017-02-04T00:09:48.805Z,22.65
2017-02-04T00:10:48.750Z,22.59
2017-02-04T00:11:48.678Z,22.62
2017-02-04T00:12:48.233Z,22.66
2017-02-04T00:13:48.554Z,22.51
2017-02-04T00:14:48.096Z,22.62
2017-02-04T00:15:48.432Z,22.63
2017-02-04T00:16:48.360Z,22.62
2017-02-04T00:17:48.306Z,22.7
2017-02-04T00:18:48.237Z,22.66
2017-02-04T00:19:48.200Z,22.6
2017-02-04T00:20:47.329Z,22.59
2017-02-04T00:21:48.060Z,22.6
2017-02-04T00:22:47.986Z,22.72
2017-02-04T00:23:47.926Z,22.63
2017-02-04T00:24:47.474Z,22.68
2017-02-04T00:25:47.794Z,22.63
2017-02-04T00:26:47.735Z,22.6
2017-02-04T00:27:47.667Z,22.65
2017-02-04T00:28:47.607Z,22.6
2017-02-04T00:29:47.832Z,22.63
2017-02-04T00:30:47.484Z,22.62
2017-02-04T00:31:47.034Z,22.63
2017-02-04T00:32:47.357Z,22.63
2017-02-04T00:33:47.292Z,22.62
2017-02-04T00:34:47.233Z,22.72
2017-02-04T00:35:47.170Z,22.57
2017-02-04T00:36:47.104Z,22.62
2017-02-04T00:37:50.036Z,22.63
2017-02-04T00:38:46.981Z,22.66
2017-02-04T00:39:46.917Z,22.65
2017-02-04T00:40:46.852Z,22.7
2017-02-04T00:41:46.795Z,22.59
2017-02-04T00:42:46.728Z,22.63
2017-02-04T00:43:46.665Z,22.62
2017-02-04T00:44:46.607Z,22.62
2017-02-04T00:45:46.539Z,22.66
2017-02-04T00:46:46.478Z,22.62
2017-02-04T00:47:46.413Z,22.62
2017-02-04T00:48:46.354Z,22.6
2017-02-04T00:49:46.290Z,22.63
2017-02-04T00:50:46.229Z,22.68
2017-02-04T00:51:46.161Z,22.62
2017-02-04T00:52:46.098Z,22.63
2017-02-04T00:53:46.037Z,22.63
2017-02-04T00:54:45.975Z,22.73
2017-02-04T00:55:45.908Z,22.6
2017-02-04T00:56:45.847Z,22.65
2017-02-04T00:57:45.787Z,22.63
2017-02-04T00:58:45.721Z,22.62
2017-02-04T00:59:45.657Z,22.63
2017-02-04T01:01:15.715Z,22.66
2017-02-04T01:02:15.641Z,22.66
2017-02-04T01:03:15.576Z,22.7
2017-02-04T01:04:15.517Z,22.6
2017-02-04T01:05:15.453Z,22.68
2017-02-04T01:06:15.939Z,22.63
2017-02-04T01:07:15.325Z,22.68
2017-02-04T01:08:15.261Z,22.68
2017-02-04T01:09:15.214Z,22.59
2017-02-04T01:10:15.141Z,22.68
2017-02-04T01:11:15.074Z,22.62
2017-02-04T01:12:15.009Z,22.63
2017-02-04T01:13:14.950Z,22.66
2017-02-04T01:14:14.883Z,22.63
2017-02-04T01:15:14.823Z,22.62
2017-02-04T01:16:14.761Z,22.7
2017-02-04T01:17:14.696Z,22.62
2017-02-04T01:18:14.634Z,22.57
2017-02-04T01:19:14.569Z,22.65
2017-02-04T01:20:14.506Z,22.63
2017-02-04T01:21:14.445Z,22.69
2017-02-04T01:22:14.378Z,22.62
2017-02-04T01:23:14.317Z,22.63
2017-02-04T01:24:14.256Z,22.66
2017-02-04T01:25:14.191Z,22.66
2017-02-04T01:26:14.134Z,22.62
2017-02-04T01:27:14.066Z,22.65
2017-02-04T01:28:14.005Z,22.69
2017-02-04T01:29:13.942Z,22.63
2017-02-04T01:30:13.873Z,22.7
2017-02-04T01:31:13.814Z,22.68
2017-02-04T01:32:13.661Z,22.69
2017-02-04T01:33:13.686Z,22.63
2017-02-04T01:34:13.625Z,22.68
2017-02-04T01:35:13.562Z,22.62
2017-02-04T01:36:13.513Z,22.7
2017-02-04T01:37:13.436Z,22.73
2017-02-04T01:38:12.986Z,22.66
2017-02-04T01:39:12.924Z,22.65
2017-02-04T01:40:13.251Z,22.7
2017-02-04T01:41:13.184Z,22.63
2017-02-04T01:42:13.125Z,22.69
2017-02-04T01:43:13.263Z,22.73
2017-02-04T01:44:13.001Z,22.65
2017-02-04T01:45:12.845Z,22.65
2017-02-04T01:46:12.873Z,22.66
2017-02-04T01:47:12.417Z,22.66
2017-02-04T01:48:12.743Z,22.66
2017-02-04T01:49:12.684Z,22.66
2017-02-04T01:50:12.772Z,22.66
2017-02-04T01:51:12.562Z,22.6
2017-02-04T01:52:12.107Z,22.6
2017-02-04T01:53:12.040Z,22.63
2017-02-04T01:54:12.371Z,22.63
2017-02-04T01:55:12.310Z,22.7
2017-02-04T01:56:12.243Z,22.62
2017-02-04T01:57:12.186Z,22.75
2017-02-04T01:58:12.115Z,22.68
2017-02-04T01:59:12.053Z,22.68
2017-02-04T02:00:11.993Z,22.63
2017-02-04T02:01:11.930Z,22.75
2017-02-04T02:02:11.867Z,22.7
2017-02-04T02:03:11.806Z,22.54
2017-02-04T02:04:11.741Z,22.69
2017-02-04T02:05:11.678Z,22.62
2017-02-04T02:06:11.619Z,22.7
2017-02-04T02:07:11.551Z,22.75
2017-02-04T02:08:11.100Z,22.75
2017-02-04T02:09:11.428Z,22.73
2017-02-04T02:10:11.361Z,22.6
2017-02-04T02:11:11.296Z,22.73
2017-02-04T02:12:10.845Z,22.69
2017-02-04T02:13:11.175Z,22.75
2017-02-04T02:14:11.114Z,22.75
2017-02-04T02:15:11.050Z,22.69
2017-02-04T02:16:10.985Z,22.7
2017-02-04T02:17:10.927Z,22.7
2017-02-04T02:18:10.856Z,22.62
2017-02-04T02:19:10.799Z,22.65
2017-02-04T02:20:10.983Z,22.62
2017-02-04T02:21:10.669Z,22.7
2017-02-04T02:22:10.613Z,22.6
2017-02-04T02:23:10.154Z,22.68
2017-02-04T02:24:09.703Z,22.73
2017-02-04T02:25:10.716Z,22.7
2017-02-04T02:26:10.356Z,22.73
2017-02-04T02:27:10.294Z,22.69
2017-02-04T02:28:09.840Z,22.6
2017-02-04T02:29:10.164Z,22.7
2017-02-04T02:30:10.410Z,22.75
2017-02-04T02:31:10.045Z,22.7
2017-02-04T02:32:10.184Z,22.63
2017-02-04T02:33:09.916Z,22.7
2017-02-04T02:34:09.854Z,22.62
2017-02-04T02:35:09.800Z,22.6
2017-02-04T02:36:09.730Z,22.63
2017-02-04T02:37:09.665Z,22.7
2017-02-04T02:38:09.605Z,22.62
2017-02-04T02:39:09.539Z,22.66
2017-02-04T02:40:09.484Z,22.62
2017-02-04T02:41:09.418Z,22.68
2017-02-04T02:42:09.350Z,22.73
2017-02-04T02:43:09.292Z,22.62
2017-02-04T02:44:09.224Z,22.69
2017-02-04T02:45:09.162Z,22.63
2017-02-04T02:46:09.104Z,22.59
2017-02-04T02:47:09.039Z,22.6
2017-02-04T02:48:08.976Z,22.73
2017-02-04T02:49:08.908Z,22.65
2017-02-04T02:50:08.849Z,22.73
2017-02-04T02:51:08.787Z,22.68
2017-02-04T02:52:08.333Z,22.63
2017-02-04T02:53:08.662Z,22.63
2017-02-04T02:54:08.599Z,22.69
2017-02-04T02:55:08.534Z,22.66
2017-02-04T02:56:08.471Z,22.65
2017-02-04T02:57:08.015Z,22.63
2017-02-04T02:58:08.343Z,22.72
2017-02-04T02:59:08.286Z,22.68
2017-02-04T03:00:08.217Z,22.73
2017-02-04T03:01:08.152Z,22.69
2017-02-04T03:02:08.091Z,22.63
2017-02-04T03:03:08.032Z,22.72
2017-02-04T03:04:07.967Z,22.72
2017-02-04T03:05:07.904Z,22.75
2017-02-04T03:06:07.450Z,22.73
2017-02-04T03:07:07.778Z,22.63
2017-02-04T03:08:07.716Z,22.72
2017-02-04T03:09:07.656Z,22.73
2017-02-04T03:10:07.200Z,22.65
2017-02-04T03:11:07.530Z,22.73
2017-02-04T03:12:07.465Z,22.68
2017-02-04T03:13:07.402Z,22.68
2017-02-04T03:14:07.340Z,22.7
2017-02-04T03:15:07.275Z,22.68
2017-02-04T03:16:06.825Z,22.7
2017-02-04T03:17:07.147Z,22.65
2017-02-04T03:18:07.088Z,22.62
2017-02-04T03:19:07.022Z,22.62
2017-02-04T03:20:06.967Z,22.66
2017-02-04T03:21:06.905Z,22.68
2017-02-04T03:22:06.837Z,22.68
2017-02-04T03:23:06.774Z,22.62
2017-02-04T03:24:06.718Z,22.7
2017-02-04T03:25:06.676Z,22.66
2017-02-04T03:26:06.583Z,22.69
2017-02-04T03:27:06.520Z,22.73
2017-02-04T03:28:06.462Z,22.66
2017-02-04T03:29:06.398Z,22.59
2017-02-04T03:30:06.336Z,22.65
2017-02-04T03:31:06.272Z,22.68
2017-02-04T03:32:06.204Z,22.68
2017-02-04T03:33:06.145Z,22.66
2017-02-04T03:34:06.080Z,22.63
2017-02-04T03:35:06.025Z,22.65
2017-02-04T03:36:05.958Z,22.63
2017-02-04T03:37:05.896Z,22.62
2017-02-04T03:38:05.830Z,22.73
2017-02-04T03:39:05.768Z,22.73
2017-02-04T03:40:05.705Z,22.75
2017-02-04T03:41:05.640Z,22.69
2017-02-04T03:42:05.580Z,22.66
2017-02-04T03:43:05.520Z,22.65
2017-02-04T03:44:05.460Z,22.6
2017-02-04T03:45:05.388Z,22.63
2017-02-04T03:46:05.321Z,22.69
2017-02-04T03:47:05.262Z,22.69
2017-02-04T03:48:05.204Z,22.75
2017-02-04T03:49:05.135Z,22.7
2017-02-04T03:50:05.076Z,22.63
2017-02-04T03:51:05.012Z,22.6
2017-02-04T03:52:04.953Z,22.68
2017-02-04T03:53:04.886Z,22.63
2017-02-04T03:54:04.825Z,22.6
2017-02-04T03:55:04.768Z,22.7
2017-02-04T03:56:04.705Z,22.66
2017-02-04T03:57:04.637Z,22.72
2017-02-04T03:58:04.575Z,22.66
2017-02-04T03:59:04.509Z,22.65
2017-02-04T04:00:04.698Z,22.62
2017-02-04T04:01:04.389Z,22.69
2017-02-04T04:02:04.319Z,22.6
2017-02-04T04:03:04.257Z,22.69
2017-02-04T04:04:04.196Z,22.63
2017-02-04T04:05:04.134Z,22.76
2017-02-04T04:06:04.073Z,22.7
2017-02-04T04:07:04.005Z,22.75
2017-02-04T04:08:03.947Z,22.63
2017-02-04T04:09:03.878Z,22.66
2017-02-04T04:10:03.817Z,22.65
2017-02-04T04:11:03.758Z,22.6
2017-02-04T04:12:03.703Z,22.69
2017-02-04T04:13:03.631Z,22.68
2017-02-04T04:14:03.571Z,22.75
2017-02-04T04:15:03.507Z,22.59
2017-02-04T04:16:03.445Z,22.68
2017-02-04T04:17:03.380Z,22.69
2017-02-04T04:18:03.316Z,22.65
2017-02-04T04:19:03.253Z,22.63
2017-02-04T04:20:03.187Z,22.6
2017-02-04T04:21:03.129Z,22.69
2017-02-04T04:22:03.062Z,22.63
2017-02-04T04:23:03.001Z,22.69
2017-02-04T04:24:02.938Z,22.7
2017-02-04T04:25:02.875Z,22.6
2017-02-04T04:26:02.818Z,22.72
2017-02-04T04:27:02.750Z,22.65
2017-02-04T04:28:02.689Z,22.62
2017-02-04T04:29:02.628Z,22.73
2017-02-04T04:30:02.560Z,22.65
2017-02-04T04:31:02.104Z,22.73
2017-02-04T04:32:02.438Z,22.68
2017-02-04T04:33:02.375Z,22.66
2017-02-04T04:34:02.309Z,22.6
2017-02-04T04:35:02.244Z,22.66
2017-02-04T04:36:02.184Z,22.65
2017-02-04T04:37:02.120Z,22.75
2017-02-04T04:38:02.059Z,22.63
2017-02-04T04:39:02.027Z,22.69
2017-02-04T04:40:01.939Z,22.62
2017-02-04T04:41:01.868Z,22.62
2017-02-04T04:42:01.805Z,22.66
2017-02-04T04:43:01.780Z,22.69
2017-02-04T04:44:01.681Z,22.66
2017-02-04T04:45:01.624Z,22.7
2017-02-04T04:46:01.557Z,22.66
2017-02-04T04:47:01.493Z,22.59
2017-02-04T04:48:01.460Z,22.68
2017-02-04T04:49:01.369Z,22.72
2017-02-04T04:50:01.307Z,22.65
2017-02-04T04:51:01.241Z,22.62
2017-02-04T04:52:01.182Z,22.63
2017-02-04T04:53:01.120Z,22.68
2017-02-04T04:54:01.050Z,22.63
2017-02-04T04:55:00.996Z,22.63
2017-02-04T04:56:00.925Z,22.68
2017-02-04T04:57:00.867Z,22.62
2017-02-04T04:58:00.801Z,22.66
2017-02-04T04:59:00.738Z,22.72
2017-02-04T05:00:00.675Z,22.68
2017-02-04T05:01:00.612Z,22.66
2017-02-04T05:02:00.550Z,22.69
2017-02-04T05:03:00.485Z,22.62
2017-02-04T05:04:00.037Z,22.66
2017-02-04T05:05:00.356Z,22.62
2017-02-04T05:06:00.298Z,22.6
2017-02-04T05:07:00.232Z,22.53
2017-02-04T05:08:00.171Z,22.57
2017-02-04T05:09:00.110Z,22.59
2017-02-04T05:10:00.047Z,22.53
2017-02-04T05:10:59.985Z,22.57
2017-02-04T05:11:59.920Z,22.57
2017-02-04T05:12:59.858Z,22.57
2017-02-04T05:13:59.794Z,22.53
2017-02-04T05:14:59.732Z,22.41
2017-02-04T05:15:59.668Z,22.48
2017-02-04T05:16:59.606Z,22.51
2017-02-04T05:17:59.541Z,22.45
2017-02-04T05:18:59.484Z,22.41
2017-02-04T05:19:59.416Z,22.54
2017-02-04T05:20:59.353Z,22.43
2017-02-04T05:21:59.293Z,22.45
2017-02-04T05:22:59.229Z,22.5
2017-02-04T05:23:59.163Z,22.51
2017-02-04T05:24:59.105Z,22.43
2017-02-04T05:25:59.043Z,22.51
2017-02-04T05:26:58.975Z,22.47
2017-02-04T05:27:58.944Z,22.47
2017-02-04T05:28:58.855Z,22.39
2017-02-04T05:29:58.789Z,22.48
2017-02-04T05:30:58.725Z,22.41
2017-02-04T05:31:58.663Z,22.47
2017-02-04T05:32:58.601Z,22.44
2017-02-04T05:33:58.535Z,22.36
2017-02-04T05:34:58.469Z,22.41
2017-02-04T05:35:58.409Z,22.36
2017-02-04T05:36:58.350Z,22.38
2017-02-04T05:37:58.284Z,22.32
2017-02-04T05:38:58.217Z,22.39
2017-02-04T05:39:58.158Z,22.41
2017-02-04T05:40:58.092Z,22.39
2017-02-04T05:41:58.030Z,22.38
2017-02-04T05:42:57.969Z,22.41
2017-02-04T05:43:57.907Z,22.41
2017-02-04T05:44:57.843Z,22.38
2017-02-04T05:45:57.786Z,22.35
2017-02-04T05:46:57.716Z,22.44
2017-02-04T05:47:57.656Z,22.39
2017-02-04T05:48:57.589Z,22.39
2017-02-04T05:49:57.136Z,22.38
2017-02-04T05:50:57.459Z,22.36
2017-02-04T05:51:57.404Z,22.33
2017-02-04T05:52:57.336Z,22.36
2017-02-04T05:53:57.274Z,22.33
2017-02-04T05:54:57.212Z,22.41
2017-02-04T05:55:57.188Z,22.23
2017-02-04T05:56:57.083Z,22.3
2017-02-04T05:57:57.055Z,22.36
2017-02-04T05:58:56.962Z,22.35
2017-02-04T05:59:56.897Z,22.36
2017-02-04T06:00:56.442Z,22.41
2017-02-04T06:01:56.381Z,22.32
2017-02-04T06:02:56.712Z,22.41
2017-02-04T06:03:56.645Z,22.3
2017-02-04T06:04:56.580Z,22.38
2017-02-04T06:05:56.517Z,22.36
2017-02-04T06:06:56.457Z,22.41
2017-02-04T06:07:56.416Z,22.36
2017-02-04T06:08:56.330Z,22.39
2017-02-04T06:09:56.260Z,22.38
2017-02-04T06:10:56.202Z,22.36
2017-02-04T06:11:56.140Z,22.41
2017-02-04T06:12:56.082Z,22.38
2017-02-04T06:13:56.012Z,22.35
2017-02-04T06:14:56.149Z,22.38
2017-02-04T06:15:55.888Z,22.36
2017-02-04T06:16:55.824Z,22.32
2017-02-04T06:17:55.759Z,22.33
2017-02-04T06:18:55.697Z,22.3
2017-02-04T06:19:55.636Z,22.41
2017-02-04T06:20:55.568Z,22.35
2017-02-04T06:21:55.509Z,22.32
2017-02-04T06:22:55.443Z,22.33
2017-02-04T06:23:54.989Z,22.32
2017-02-04T06:24:55.318Z,22.3
2017-02-04T06:25:55.253Z,22.39
2017-02-04T06:26:55.192Z,22.41
2017-02-04T06:27:55.133Z,22.36
2017-02-04T06:28:55.066Z,22.36
2017-02-04T06:29:55.006Z,22.33
2017-02-04T06:30:54.546Z,22.35
2017-02-04T06:31:54.877Z,22.28
2017-02-04T06:32:54.813Z,22.3
2017-02-04T06:33:54.359Z,22.33
2017-02-04T06:34:54.686Z,22.41
2017-02-04T06:35:54.627Z,22.35
2017-02-04T06:36:54.170Z,22.32
2017-02-04T06:37:54.499Z,22.29
2017-02-04T06:38:54.433Z,22.35
2017-02-04T06:39:54.371Z,22.41
2017-02-04T06:40:53.917Z,22.36
2017-02-04T06:41:54.244Z,22.39
2017-02-04T06:42:54.189Z,22.32
2017-02-04T06:43:54.129Z,22.25
2017-02-04T06:44:54.054Z,22.32
2017-02-04T06:45:53.991Z,22.33
2017-02-04T06:46:53.929Z,22.3
2017-02-04T06:47:53.863Z,22.39
2017-02-04T06:48:53.802Z,22.32
2017-02-04T06:49:53.741Z,22.29
2017-02-04T06:50:53.292Z,22.32
2017-02-04T06:51:53.614Z,22.35
2017-02-04T06:52:53.551Z,22.25
2017-02-04T06:53:53.486Z,22.36
2017-02-04T06:54:53.423Z,22.39
2017-02-04T06:55:53.360Z,22.33
2017-02-04T06:56:53.298Z,22.36
2017-02-04T06:57:53.232Z,22.32
2017-02-04T06:58:53.173Z,22.3
2017-02-04T06:59:53.108Z,22.38
2017-02-04T07:00:53.593Z,22.36
2017-02-04T07:01:52.987Z,22.29
2017-02-04T07:02:52.920Z,22.35
2017-02-04T07:03:52.856Z,22.25
2017-02-04T07:04:52.792Z,22.29
2017-02-04T07:05:52.731Z,22.35
2017-02-04T07:06:51.905Z,22.35
2017-02-04T07:07:52.603Z,22.25
2017-02-04T07:08:52.548Z,22.32
2017-02-04T07:09:52.101Z,22.35
2017-02-04T07:10:52.674Z,22.35
2017-02-04T07:11:52.366Z,22.23
2017-02-04T07:12:52.293Z,22.26
2017-02-04T07:13:52.224Z,22.28
2017-02-04T07:14:52.174Z,22.33
2017-02-04T07:15:52.107Z,22.23
2017-02-04T07:16:52.053Z,22.25
2017-02-04T07:17:51.992Z,22.22
2017-02-04T07:18:51.926Z,22.23
2017-02-04T07:19:51.856Z,22.35
2017-02-04T07:20:51.781Z,22.32
2017-02-04T07:21:51.716Z,22.32
2017-02-04T07:22:51.652Z,22.29
2017-02-04T07:23:51.592Z,22.32
2017-02-04T07:24:51.527Z,22.33
2017-02-04T07:26:51.402Z,22.35
2017-02-04T07:27:51.345Z,22.28
2017-02-04T07:28:51.276Z,22.25
2017-02-04T07:29:51.214Z,22.36
2017-02-04T07:30:51.151Z,22.26
2017-02-04T07:31:51.081Z,22.22
2017-02-04T07:32:51.022Z,22.26
2017-02-04T07:33:50.959Z,22.22
2017-02-04T07:34:50.896Z,22.22
2017-02-04T07:35:50.871Z,22.25
2017-02-04T07:36:50.771Z,22.26
2017-02-04T07:37:50.713Z,22.33
2017-02-04T07:38:50.646Z,22.26
2017-02-04T07:39:50.583Z,22.26
2017-02-04T07:40:50.514Z,22.26
2017-02-04T07:41:50.451Z,22.25
2017-02-04T07:42:50.397Z,22.3
2017-02-04T07:43:50.325Z,22.25
2017-02-04T07:44:50.274Z,22.22
2017-02-04T07:45:50.454Z,22.23
2017-02-04T07:46:50.144Z,22.26
2017-02-04T07:47:50.081Z,22.25
2017-02-04T07:48:50.009Z,22.23
2017-02-04T07:49:49.947Z,22.25
2017-02-04T07:50:50.184Z,22.25
2017-02-04T07:51:49.820Z,22.25
2017-02-04T07:52:49.756Z,22.3
2017-02-04T07:53:49.695Z,22.23
2017-02-04T07:54:49.634Z,22.22
2017-02-04T07:55:49.569Z,22.23
2017-02-04T07:56:49.501Z,22.22
2017-02-04T07:57:49.439Z,22.23
2017-02-04T07:58:49.376Z,22.26
2017-02-04T07:59:49.315Z,22.32
2017-02-04T08:00:49.490Z,22.2
2017-02-04T08:01:49.188Z,22.25
2017-02-04T08:02:49.125Z,22.29
2017-02-04T08:03:49.062Z,22.25
2017-02-04T08:04:49.000Z,22.26
2017-02-04T08:05:48.935Z,22.26
2017-02-04T08:06:48.872Z,22.28
2017-02-04T08:07:48.811Z,22.28
2017-02-04T08:08:48.749Z,22.25
2017-02-04T08:09:48.684Z,22.28
2017-02-04T08:10:48.618Z,22.28
2017-02-04T08:11:48.554Z,22.25
2017-02-04T08:12:48.496Z,22.25
2017-02-04T08:13:48.438Z,22.26
2017-02-04T08:14:48.363Z,22.29
2017-02-04T08:15:48.303Z,22.3
2017-02-04T08:16:48.239Z,22.28
2017-02-04T08:17:48.180Z,22.23
2017-02-04T08:18:48.110Z,22.28
2017-02-04T08:19:48.048Z,22.29
2017-02-04T08:20:47.986Z,22.29
2017-02-04T08:21:47.923Z,22.3
2017-02-04T08:22:47.859Z,22.28
2017-02-04T08:23:47.802Z,22.26
2017-02-04T08:24:47.365Z,22.25
2017-02-04T08:25:47.672Z,22.28
2017-02-04T08:26:47.608Z,22.25
2017-02-04T08:27:47.545Z,22.28
2017-02-04T08:28:47.482Z,22.26
2017-02-04T08:29:47.419Z,22.28
2017-02-04T08:30:47.352Z,22.26
2017-02-04T08:31:47.290Z,22.26
2017-02-04T08:32:46.843Z,22.25
2017-02-04T08:33:47.161Z,22.28
2017-02-04T08:34:47.100Z,22.32
2017-02-04T08:35:47.040Z,22.29
2017-02-04T08:36:46.974Z,22.22
2017-02-04T08:37:46.910Z,22.26
2017-02-04T08:38:46.856Z,22.3
2017-02-04T08:39:46.782Z,22.23
2017-02-04T08:40:46.721Z,22.26
2017-02-04T08:41:46.659Z,22.29
2017-02-04T08:42:46.240Z,22.29
2017-02-04T08:43:46.530Z,22.29
2017-02-04T08:44:46.473Z,22.32
2017-02-04T08:45:46.406Z,22.26
2017-02-04T08:46:46.342Z,22.26
2017-02-04T08:47:46.273Z,22.32
2017-02-04T08:48:46.215Z,22.26
2017-02-04T08:49:46.152Z,22.23
2017-02-04T08:50:46.086Z,22.3
2017-02-04T08:51:46.024Z,22.23
2017-02-04T08:52:45.960Z,22.28
2017-02-04T08:53:45.901Z,22.29
2017-02-04T08:54:45.837Z,22.3
2017-02-04T08:55:45.775Z,22.25
2017-02-04T08:56:45.712Z,22.26
2017-02-04T08:57:45.644Z,22.3
2017-02-04T08:58:45.592Z,22.33
2017-02-04T08:59:45.521Z,22.22
2017-02-04T09:00:45.457Z,22.25
2017-02-04T09:01:45.395Z,22.33
2017-02-04T09:02:45.370Z,22.28
2017-02-04T09:03:45.301Z,22.28
2017-02-04T09:04:45.206Z,22.22
2017-02-04T09:06:45.077Z,22.25
2017-02-04T09:07:45.016Z,22.3
2017-02-04T09:08:44.954Z,22.32
2017-02-04T09:09:44.496Z,22.3
2017-02-04T09:10:44.823Z,22.26
2017-02-04T09:11:44.761Z,22.3
2017-02-04T09:12:44.698Z,22.33
2017-02-04T09:13:44.632Z,22.26
2017-02-04T09:14:44.571Z,22.3
2017-02-04T09:15:44.509Z,22.29
2017-02-04T09:16:44.446Z,22.3
2017-02-04T09:17:44.380Z,22.23
2017-02-04T09:18:44.319Z,22.2
2017-02-04T09:19:44.256Z,22.29
2017-02-04T09:20:44.191Z,22.26
2017-02-04T09:21:44.163Z,22.23
2017-02-04T09:22:44.069Z,22.28
2017-02-04T09:23:44.037Z,22.22
2017-02-04T09:24:43.937Z,22.32
2017-02-04T09:25:43.878Z,22.33
2017-02-04T09:26:43.422Z,22.26
2017-02-04T09:27:43.354Z,22.32
2017-02-04T09:28:43.685Z,22.26
2017-02-04T09:29:43.625Z,22.23
2017-02-04T09:30:43.572Z,22.25
2017-02-04T09:31:43.496Z,22.33
2017-02-04T09:32:43.436Z,22.32
2017-02-04T09:33:43.370Z,22.25
2017-02-04T09:34:43.301Z,22.26
2017-02-04T09:35:43.243Z,22.3
2017-02-04T09:36:43.176Z,22.28
2017-02-04T09:37:43.115Z,22.3
2017-02-04T09:38:43.054Z,22.28
2017-02-04T09:39:42.990Z,22.25
2017-02-04T09:40:42.927Z,22.3
2017-02-04T09:41:42.858Z,22.25
2017-02-04T09:42:42.800Z,22.17
2017-02-04T09:43:42.736Z,22.3
2017-02-04T09:44:42.668Z,22.17
2017-02-04T09:45:42.609Z,22.23
2017-02-04T09:46:42.542Z,22.3
2017-02-04T09:47:42.486Z,22.25
2017-02-04T09:48:42.419Z,22.25
2017-02-04T09:49:42.351Z,22.33
2017-02-04T09:50:42.398Z,22.29
2017-02-04T09:51:42.232Z,22.22
2017-02-04T09:52:42.165Z,22.32
2017-02-04T09:53:42.100Z,22.23
2017-02-04T09:54:42.041Z,22.32
2017-02-04T09:55:42.373Z,22.26
2017-02-04T09:56:41.913Z,22.29
2017-02-04T09:57:41.849Z,22.28
2017-02-04T09:58:41.787Z,22.13
2017-02-04T09:59:41.726Z,22.23
2017-02-04T10:00:41.665Z,22.33
2017-02-04T10:01:41.616Z,22.23
2017-02-04T10:02:41.533Z,22.29
2017-02-04T10:03:41.471Z,22.15
2017-02-04T10:04:41.407Z,22.23
2017-02-04T10:05:40.949Z,22.26
2017-02-04T10:06:41.282Z,22.3
2017-02-04T10:07:41.217Z,22.28
2017-02-04T10:08:41.152Z,22.28
2017-02-04T10:09:41.092Z,22.18
2017-02-04T10:10:55.523Z,22.3
2017-02-04T10:11:42.164Z,22.29
2017-02-04T10:12:40.903Z,22.29
2017-02-04T10:13:40.838Z,22.25
2017-02-04T10:14:40.774Z,22.29
2017-02-04T10:15:40.712Z,22.18
2017-02-04T10:16:40.646Z,22.22
2017-02-04T10:17:40.586Z,22.23
2017-02-04T10:18:40.129Z,22.28
2017-02-04T10:19:40.456Z,22.2
2017-02-04T10:20:40.396Z,22.15
2017-02-04T10:21:40.332Z,22.2
2017-02-04T10:22:40.272Z,22.22
2017-02-04T10:23:40.203Z,22.14
2017-02-04T10:24:40.141Z,22.28
2017-02-04T10:25:40.079Z,22.15
2017-02-04T10:26:40.047Z,22.22
2017-02-04T10:27:39.564Z,22.26
2017-02-04T10:28:39.894Z,22.17
2017-02-04T10:29:39.827Z,22.18
2017-02-04T10:30:39.778Z,22.17
2017-02-04T10:31:39.703Z,22.18
2017-02-04T10:32:39.639Z,22.23
2017-02-04T10:33:39.574Z,22.3
2017-02-04T10:34:39.520Z,22.28
2017-02-04T10:35:39.450Z,22.18
2017-02-04T10:36:39.387Z,22.14
2017-02-04T10:37:39.323Z,22.3
2017-02-04T10:38:39.257Z,22.22
2017-02-04T10:39:39.193Z,22.3
2017-02-04T10:40:39.133Z,22.3
2017-02-04T10:41:39.070Z,22.29
2017-02-04T10:42:39.006Z,22.32
2017-02-04T10:43:38.942Z,22.22
2017-02-04T10:44:38.879Z,22.25
2017-02-04T10:45:38.816Z,22.22
2017-02-04T10:46:38.781Z,22.33
2017-02-04T10:47:38.689Z,22.29
2017-02-04T10:48:38.237Z,22.25
2017-02-04T10:49:38.563Z,22.25
2017-02-04T10:50:38.502Z,22.15
2017-02-04T10:51:38.442Z,22.25
2017-02-04T10:52:38.374Z,22.33
2017-02-04T10:53:38.310Z,22.3
2017-02-04T10:54:38.246Z,22.25
2017-02-04T10:55:38.209Z,22.32
2017-02-04T10:56:38.116Z,22.25
2017-02-04T10:57:38.056Z,22.28
2017-02-04T10:58:37.997Z,22.25
2017-02-04T10:59:37.930Z,22.2
2017-02-04T11:00:37.867Z,22.2
2017-02-04T11:01:37.812Z,22.18
2017-02-04T11:02:37.741Z,22.25
2017-02-04T11:03:37.676Z,22.33
2017-02-04T11:04:37.613Z,22.33
2017-02-04T11:05:37.163Z,22.32
2017-02-04T11:06:37.536Z,22.28
2017-02-04T11:07:37.423Z,22.32
2017-02-04T11:08:37.363Z,22.29
2017-02-04T11:09:37.297Z,22.26
2017-02-04T11:10:36.844Z,22.15
2017-02-04T11:11:37.197Z,22.17
2017-02-04T11:12:37.110Z,22.23
2017-02-04T11:13:37.049Z,22.15
2017-02-04T11:14:36.982Z,22.28
2017-02-04T11:15:36.915Z,22.18
2017-02-04T11:16:36.858Z,22.32
2017-02-04T11:17:36.805Z,22.15
2017-02-04T11:18:36.727Z,22.2
2017-02-04T11:19:36.667Z,22.3
2017-02-04T11:20:36.210Z,22.23
2017-02-04T11:21:36.537Z,22.32
2017-02-04T11:22:36.477Z,22.22
2017-02-04T11:23:36.413Z,22.29
2017-02-04T11:24:35.961Z,22.25
2017-02-04T11:25:36.284Z,22.26
2017-02-04T11:26:36.222Z,22.25
2017-02-04T11:27:36.163Z,22.17
2017-02-04T11:28:36.117Z,22.3
2017-02-04T11:29:35.641Z,22.29
2017-02-04T11:30:35.971Z,22.29
2017-02-04T11:31:35.905Z,22.28
2017-02-04T11:32:35.476Z,22.23
2017-02-04T11:33:35.780Z,22.33
2017-02-04T11:34:35.718Z,22.3
2017-02-04T11:35:35.648Z,22.29
2017-02-04T11:36:35.588Z,22.28
2017-02-04T11:37:35.526Z,22.33
2017-02-04T11:38:35.464Z,22.23
2017-02-04T11:39:35.006Z,22.28
2017-02-04T11:40:35.337Z,22.33
2017-02-04T11:41:35.274Z,22.18
2017-02-04T11:42:35.215Z,22.3
2017-02-04T11:43:35.149Z,22.32
2017-02-04T11:44:35.083Z,22.32
2017-02-04T11:45:35.019Z,22.3
2017-02-04T11:46:34.961Z,22.33
2017-02-04T11:47:34.895Z,22.29
2017-02-04T11:48:34.833Z,22.18
2017-02-04T11:49:34.765Z,22.3
2017-02-04T11:50:34.703Z,22.3
2017-02-04T11:51:34.640Z,22.15
2017-02-04T11:52:34.577Z,22.17
2017-02-04T11:53:34.515Z,22.25
2017-02-04T11:54:34.451Z,22.3
2017-02-04T11:55:34.737Z,22.25
2017-02-04T11:56:34.322Z,22.26
2017-02-04T11:57:34.260Z,22.33
2017-02-04T11:58:34.195Z,22.28
2017-02-04T11:59:34.136Z,22.15
2017-02-04T12:00:34.069Z,22.28
2017-02-04T12:01:34.007Z,22.28
2017-02-04T12:02:33.946Z,22.29
2017-02-04T12:03:33.881Z,22.28
2017-02-04T12:04:33.819Z,22.29
2017-02-04T12:05:33.364Z,22.22
2017-02-04T12:06:33.695Z,22.32
2017-02-04T12:07:34.237Z,22.3
2017-02-04T12:08:33.571Z,22.28
2017-02-04T12:09:33.497Z,22.3
2017-02-04T12:10:33.442Z,22.3
2017-02-04T12:11:33.378Z,22.29
2017-02-04T12:12:33.311Z,22.26
2017-02-04T12:13:33.254Z,22.22
2017-02-04T12:14:33.184Z,22.29
2017-02-04T12:15:33.119Z,22.3
2017-02-04T12:16:33.059Z,22.3
2017-02-04T12:17:32.996Z,22.29
2017-02-04T12:18:32.931Z,22.23
2017-02-04T12:19:32.871Z,22.15
2017-02-04T12:20:32.804Z,22.25
2017-02-04T12:21:32.354Z,22.28
2017-02-04T12:22:32.682Z,22.26
2017-02-04T12:23:32.613Z,22.32
2017-02-04T12:24:32.558Z,22.28
2017-02-04T12:25:32.492Z,22.25
2017-02-04T12:26:32.433Z,22.28
2017-02-04T12:27:32.395Z,22.3
2017-02-04T12:28:32.301Z,22.26
2017-02-04T12:29:32.276Z,22.26
2017-02-04T12:30:32.180Z,22.29
2017-02-04T12:31:32.111Z,22.29
2017-02-04T12:32:32.048Z,22.23
2017-02-04T12:33:31.985Z,22.26
2017-02-04T12:34:31.921Z,22.28
2017-02-04T12:35:31.858Z,22.28
2017-02-04T12:36:31.796Z,22.23
2017-02-04T12:37:31.730Z,22.26
2017-02-04T12:38:31.673Z,22.23
2017-02-04T12:39:31.606Z,22.22
2017-02-04T12:40:31.551Z,22.33
2017-02-04T12:41:31.479Z,22.29
2017-02-04T12:42:31.417Z,22.23
2017-02-04T12:43:31.353Z,22.22
2017-02-04T12:44:31.292Z,22.26
2017-02-04T12:45:30.838Z,22.22
2017-02-04T12:46:30.772Z,22.23
2017-02-04T12:47:31.101Z,22.26
2017-02-04T12:48:31.042Z,22.29
2017-02-04T12:49:30.975Z,22.3
2017-02-04T12:50:30.908Z,22.23
2017-02-04T12:51:30.847Z,22.33
2017-02-04T12:52:30.784Z,22.28
2017-02-04T12:53:30.719Z,22.26
2017-02-04T12:54:30.658Z,22.32
2017-02-04T12:55:30.592Z,22.18
2017-02-04T12:56:30.531Z,22.23
2017-02-04T12:57:30.470Z,22.28
2017-02-04T12:58:30.406Z,22.23